Time;durP1;ratioP1;P1;durP2;ratioP2;P2;SDS_P1;SDS_P2;PMS_P1;PMS_P2;Temp;Humidity;BMP_temperature;BMP_pressure;BME280_temperature;BME280_humidity;BME280_pressure;Samples;Min_cycle;Max_cycle;Signal;HPM_P1;HPM_P2
2022/10/13 00:00:40;;;;;;;32.47;18.13;;;;;;;;;;4964906;28;20414;-67
2022/10/13 00:03:07;;;;;;;30.83;18.83;;;;;;;;;;4964790;28;20061;-67
2022/10/13 00:05:33;;;;;;;34.67;19.90;;;;;;;;;;4960858;28;20431;-68
2022/10/13 00:07:58;;;;;;;45.58;19.35;;;;;;;;;;4964899;28;20503;-67
2022/10/13 00:10:25;;;;;;;36.47;19.60;;;;;;;;;;4964792;28;20088;-67
2022/10/13 00:12:50;;;;;;;57.67;18.95;;;;;;;;;;4964533;28;20054;-68
2022/10/13 00:15:17;;;;;;;28.30;17.50;;;;;;;;;;4962365;28;20046;-67
2022/10/13 00:17:43;;;;;;;25.42;16.30;;;;;;;;;;4963894;28;20114;-68
2022/10/13 00:20:09;;;;;;;20.25;13.90;;;;;;;;;;4964292;28;20054;-67
2022/10/13 00:22:35;;;;;;;19.10;12.98;;;;;;;;;;4962855;28;20061;-69
2022/10/13 00:25:01;;;;;;;30.15;14.43;;;;;;;;;;4964570;28;20050;-68
2022/10/13 00:27:26;;;;;;;24.20;14.25;;;;;;;;;;4962264;28;20042;-68
2022/10/13 00:29:52;;;;;;;38.42;12.20;;;;;;;;;;4964141;28;20046;-68
2022/10/13 00:32:18;;;;;;;20.58;11.40;;;;;;;;;;4964098;28;20047;-68
2022/10/13 00:34:43;;;;;;;26.77;12.23;;;;;;;;;;4964138;28;20063;-68
2022/10/13 00:37:09;;;;;;;20.08;13.20;;;;;;;;;;4963235;28;20057;-68
2022/10/13 00:39:36;;;;;;;21.08;13.57;;;;;;;;;;4963146;28;20113;-68
2022/10/13 00:42:01;;;;;;;21.90;13.52;;;;;;;;;;4963855;28;20051;-68
2022/10/13 00:45:14;;;;;;;37.28;13.73;;;;;;;;;;4963716;28;20046;-68
2022/10/13 00:47:42;;;;;;;67.18;14.13;;;;;;;;;;4963097;28;20043;-67
2022/10/13 00:50:15;;;;;;;49.20;12.25;;;;;;;;;;4954252;28;20117;-67
2022/10/13 00:52:44;;;;;;;56.47;11.32;;;;;;;;;;4963743;28;20507;-68
2022/10/13 00:55:12;;;;;;;46.75;11.23;;;;;;;;;;4963853;28;20101;-68
2022/10/13 00:57:42;;;;;;;44.88;10.95;;;;;;;;;;4962909;28;20508;-68
2022/10/13 01:00:09;;;;;;;24.90;12.25;;;;;;;;;;4961467;28;20687;-68
2022/10/13 01:02:37;;;;;;;33.55;12.10;;;;;;;;;;4963474;28;20912;-68
2022/10/13 01:05:06;;;;;;;36.35;10.80;;;;;;;;;;4963361;28;20455;-68
2022/10/13 01:07:33;;;;;;;66.00;9.88;;;;;;;;;;4962902;28;20042;-68
2022/10/13 01:10:01;;;;;;;36.33;9.88;;;;;;;;;;4963649;28;20503;-68
2022/10/13 01:13:11;;;;;;;37.85;10.05;;;;;;;;;;4962220;28;20137;-67
2022/10/13 01:15:53;;;;;;;24.83;9.23;;;;;;;;;;4932476;28;20138;-68
2022/10/13 01:18:24;;;;;;;;;;;;;;;;;;4961885;28;20050;-67
2022/10/13 01:21:15;;;;;;;33.42;8.73;;;;;;;;;;4963054;28;20468;-68
2022/10/13 01:24:13;;;;;;;44.50;9.75;;;;;;;;;;4962391;28;20050;-67
2022/10/13 01:26:41;;;;;;;23.25;10.82;;;;;;;;;;4962511;28;20050;-67
2022/10/13 01:29:31;;;;;;;28.73;10.82;;;;;;;;;;4963247;28;20062;-67
2022/10/13 01:32:25;;;;;;;25.85;11.80;;;;;;;;;;4958173;28;20736;-67
2022/10/13 01:35:09;;;;;;;56.67;11.68;;;;;;;;;;4959956;28;20163;-67
2022/10/13 01:37:45;;;;;;;65.55;12.10;;;;;;;;;;4959936;28;20053;-67
2022/10/13 01:40:27;;;;;;;45.83;9.85;;;;;;;;;;4959976;28;20057;-67
2022/10/13 01:42:56;;;;;;;18.20;9.98;;;;;;;;;;4962245;28;20226;-68
2022/10/13 01:45:28;;;;;;;32.47;11.02;;;;;;;;;;4962188;28;20471;-68
2022/10/13 01:47:55;;;;;;;26.73;9.90;;;;;;;;;;4962907;28;20073;-68
2022/10/13 01:50:22;;;;;;;19.20;11.07;;;;;;;;;;4962474;28;20055;-68
2022/10/13 01:52:49;;;;;;;19.63;11.32;;;;;;;;;;4961673;28;20042;-68
2022/10/13 01:55:14;;;;;;;24.48;11.30;;;;;;;;;;4960989;28;20522;-67
2022/10/13 01:57:42;;;;;;;19.33;11.25;;;;;;;;;;4961990;28;20047;-67
2022/10/13 02:00:09;;;;;;;23.20;12.15;;;;;;;;;;4962712;28;20133;-67
2022/10/13 02:02:38;;;;;;;18.73;11.05;;;;;;;;;;4962559;28;20121;-67
2022/10/13 02:05:42;;;;;;;30.60;11.43;;;;;;;;;;4949708;28;20484;-67
2022/10/13 02:08:20;;;;;;;28.63;10.40;;;;;;;;;;4959726;28;20526;-67
2022/10/13 02:10:55;;;;;;;22.40;10.02;;;;;;;;;;4962350;28;20507;-67
2022/10/13 02:13:25;;;;;;;24.17;10.70;;;;;;;;;;4961575;28;20046;-68
2022/10/13 02:15:55;;;;;;;19.98;10.52;;;;;;;;;;4961409;28;20050;-67
2022/10/13 02:18:26;;;;;;;13.73;10.75;;;;;;;;;;4962256;28;20098;-67
2022/10/13 02:20:53;;;;;;;17.40;11.10;;;;;;;;;;4962058;28;20082;-67
2022/10/13 02:23:19;;;;;;;16.80;12.30;;;;;;;;;;4960150;28;20147;-67
2022/10/13 02:25:45;;;;;;;18.50;12.35;;;;;;;;;;4960953;28;20137;-67
2022/10/13 02:28:12;;;;;;;22.63;13.88;;;;;;;;;;4957866;28;20460;-68
2022/10/13 02:30:42;;;;;;;24.05;14.60;;;;;;;;;;4962005;28;20054;-68
2022/10/13 02:33:08;;;;;;;20.52;13.80;;;;;;;;;;4962099;28;20097;-68
2022/10/13 02:35:34;;;;;;;26.42;15.93;;;;;;;;;;4961038;28;20053;-67
2022/10/13 02:38:00;;;;;;;21.55;13.38;;;;;;;;;;4960489;28;20392;-67
2022/10/13 02:40:26;;;;;;;23.27;14.65;;;;;;;;;;4961687;28;20064;-67
2022/10/13 02:42:52;;;;;;;29.15;14.38;;;;;;;;;;4961729;28;20046;-68
2022/10/13 02:45:18;;;;;;;20.63;13.07;;;;;;;;;;4961710;28;20118;-72
2022/10/13 02:47:43;;;;;;;21.80;12.82;;;;;;;;;;4960658;28;20105;-67
2022/10/13 02:50:09;;;;;;;17.05;12.73;;;;;;;;;;4961491;28;20086;-67
2022/10/13 02:52:34;;;;;;;24.25;12.43;;;;;;;;;;4961588;28;20055;-68
2022/10/13 02:55:00;;;;;;;20.15;12.85;;;;;;;;;;4961831;28;20134;-67
2022/10/13 02:57:26;;;;;;;19.67;12.18;;;;;;;;;;4960879;28;20133;-67
2022/10/13 02:59:51;;;;;;;21.65;13.85;;;;;;;;;;4960530;28;20085;-68
2022/10/13 03:02:17;;;;;;;17.42;11.82;;;;;;;;;;4958644;28;20045;-68
2022/10/13 03:04:43;;;;;;;22.02;11.77;;;;;;;;;;4961799;28;20054;-67
2022/10/13 03:07:08;;;;;;;16.40;11.73;;;;;;;;;;4960785;28;20050;-67
2022/10/13 03:09:34;;;;;;;17.25;11.50;;;;;;;;;;4960040;28;20059;-68
2022/10/13 03:12:00;;;;;;;19.73;11.23;;;;;;;;;;4961693;28;20129;-67
2022/10/13 03:14:25;;;;;;;15.18;9.57;;;;;;;;;;4961416;28;20046;-67
2022/10/13 03:16:51;;;;;;;11.15;9.02;;;;;;;;;;4961775;28;20070;-67
2022/10/13 03:19:18;;;;;;;19.60;9.57;;;;;;;;;;4960713;28;20089;-68
2022/10/13 03:21:44;;;;;;;10.48;8.95;;;;;;;;;;4959552;28;20055;-68
2022/10/13 03:24:09;;;;;;;20.80;8.88;;;;;;;;;;4952938;28;20051;-67
2022/10/13 03:26:35;;;;;;;9.18;8.20;;;;;;;;;;4955381;28;20502;-68
2022/10/13 03:29:01;;;;;;;10.20;8.63;;;;;;;;;;4959576;28;20046;-67
2022/10/13 03:31:27;;;;;;;13.68;9.68;;;;;;;;;;4958164;28;20125;-69
2022/10/13 03:34:00;;;;;;;14.98;9.35;;;;;;;;;;4958251;28;20042;-69
2022/10/13 03:36:26;;;;;;;23.27;9.77;;;;;;;;;;4960557;28;21209;-67
2022/10/13 03:38:51;;;;;;;14.02;8.48;;;;;;;;;;4959818;28;20051;-68
2022/10/13 03:41:18;;;;;;;20.48;8.77;;;;;;;;;;4961167;28;20085;-67
2022/10/13 03:43:48;;;;;;;42.42;10.35;;;;;;;;;;4960138;28;21087;-67
2022/10/13 03:46:16;;;;;;;21.88;9.82;;;;;;;;;;4961311;28;20060;-67
2022/10/13 03:48:44;;;;;;;24.98;10.30;;;;;;;;;;4960546;28;20137;-67
2022/10/13 03:51:16;;;;;;;40.10;10.18;;;;;;;;;;4963349;28;20574;-67
2022/10/13 03:53:46;;;;;;;23.77;9.50;;;;;;;;;;4962551;28;20043;-67
2022/10/13 03:56:15;;;;;;;30.33;9.60;;;;;;;;;;4963105;28;20118;-68
2022/10/13 03:58:52;;;;;;;23.92;8.95;;;;;;;;;;4963365;28;20090;-68
2022/10/13 04:01:18;;;;;;;39.38;10.00;;;;;;;;;;4964259;28;20050;-67
2022/10/13 04:03:45;;;;;;;22.63;9.45;;;;;;;;;;4953495;28;20050;-67
2022/10/13 04:06:10;;;;;;;37.20;9.48;;;;;;;;;;4962952;28;20407;-68
2022/10/13 04:08:36;;;;;;;30.77;9.48;;;;;;;;;;4964272;28;20125;-68
2022/10/13 04:11:05;;;;;;;25.00;9.95;;;;;;;;;;4963897;28;20097;-70
2022/10/13 04:13:31;;;;;;;15.38;10.70;;;;;;;;;;4962098;28;20403;-68
2022/10/13 04:16:09;;;;;;;26.05;10.85;;;;;;;;;;4962763;28;20046;-69
2022/10/13 04:18:35;;;;;;;17.33;9.93;;;;;;;;;;4963254;28;20120;-68
2022/10/13 04:21:00;;;;;;;23.17;11.45;;;;;;;;;;4963728;28;20491;-70
2022/10/13 04:23:26;;;;;;;26.98;12.43;;;;;;;;;;4962113;28;20054;-69
2022/10/13 04:25:51;;;;;;;30.40;13.27;;;;;;;;;;4963708;28;20043;-68
2022/10/13 04:28:17;;;;;;;23.27;12.98;;;;;;;;;;4961999;28;20076;-68
2022/10/13 04:30:43;;;;;;;20.88;13.45;;;;;;;;;;4962867;28;20047;-69
2022/10/13 04:33:08;;;;;;;31.05;14.32;;;;;;;;;;4958064;28;21075;-68
2022/10/13 04:35:40;;;;;;;28.13;15.38;;;;;;;;;;4962380;28;20050;-69
2022/10/13 04:38:05;;;;;;;25.00;15.20;;;;;;;;;;4962820;28;20399;-68
2022/10/13 04:40:31;;;;;;;32.47;14.93;;;;;;;;;;4960769;28;20042;-69
2022/10/13 04:42:57;;;;;;;34.03;14.18;;;;;;;;;;4963339;28;20149;-68
2022/10/13 04:45:22;;;;;;;29.88;15.20;;;;;;;;;;4960517;28;20401;-69
2022/10/13 04:47:49;;;;;;;23.63;14.75;;;;;;;;;;4960525;28;20613;-69
2022/10/13 04:50:15;;;;;;;22.70;15.15;;;;;;;;;;4962151;28;20105;-68
2022/10/13 04:52:40;;;;;;;23.50;15.00;;;;;;;;;;4963368;28;20055;-68
2022/10/13 04:55:06;;;;;;;23.80;15.88;;;;;;;;;;4963749;28;20047;-68
2022/10/13 04:57:31;;;;;;;23.83;15.35;;;;;;;;;;4962163;28;20043;-69
2022/10/13 04:59:57;;;;;;;24.70;15.27;;;;;;;;;;4961608;28;20101;-70
2022/10/13 05:02:22;;;;;;;21.50;14.93;;;;;;;;;;4961196;28;20041;-69
2022/10/13 05:04:48;;;;;;;28.25;14.23;;;;;;;;;;4962763;28;20054;-69
2022/10/13 05:07:13;;;;;;;64.00;17.88;;;;;;;;;;4962299;28;20057;-69
2022/10/13 05:09:40;;;;;;;27.20;14.27;;;;;;;;;;4961597;28;20042;-68
2022/10/13 05:12:09;;;;;;;27.77;14.75;;;;;;;;;;4961185;28;20125;-68
2022/10/13 05:14:34;;;;;;;26.63;13.75;;;;;;;;;;4962216;28;20924;-69
2022/10/13 05:17:00;;;;;;;21.75;13.85;;;;;;;;;;4959379;28;20047;-69
2022/10/13 05:19:26;;;;;;;23.13;14.05;;;;;;;;;;4960036;28;20081;-69
2022/10/13 05:21:54;;;;;;;18.77;12.85;;;;;;;;;;4960161;28;20057;-69
2022/10/13 05:24:29;;;;;;;25.05;13.57;;;;;;;;;;4960657;28;20051;-68
2022/10/13 05:26:58;;;;;;;26.17;12.80;;;;;;;;;;4960448;28;20134;-69
2022/10/13 05:29:23;;;;;;;23.55;12.60;;;;;;;;;;4959961;28;20054;-69
2022/10/13 05:31:48;;;;;;;15.43;11.93;;;;;;;;;;4961495;28;20050;-70
2022/10/13 05:34:14;;;;;;;20.35;13.32;;;;;;;;;;4956699;28;20113;-69
2022/10/13 05:36:39;;;;;;;17.10;12.85;;;;;;;;;;4961273;28;20042;-70
2022/10/13 05:39:09;;;;;;;17.27;12.23;;;;;;;;;;4962950;28;20051;-70
2022/10/13 05:41:34;;;;;;;24.23;13.70;;;;;;;;;;4962127;28;20066;-70
2022/10/13 05:44:06;;;;;;;19.92;12.68;;;;;;;;;;4961854;28;20055;-69
2022/10/13 05:46:32;;;;;;;18.98;12.50;;;;;;;;;;4961598;28;20074;-69
2022/10/13 05:48:58;;;;;;;17.83;10.40;;;;;;;;;;4962498;28;20137;-70
2022/10/13 05:51:29;;;;;;;16.35;11.80;;;;;;;;;;4961542;28;20459;-70
2022/10/13 05:54:05;;;;;;;17.65;12.27;;;;;;;;;;4962755;28;20046;-69
2022/10/13 05:56:37;;;;;;;18.63;11.32;;;;;;;;;;4960951;28;20058;-69
2022/10/13 05:59:06;;;;;;;15.82;10.82;;;;;;;;;;4962338;28;20051;-68
2022/10/13 06:01:36;;;;;;;23.67;11.85;;;;;;;;;;4961203;28;20851;-68
2022/10/13 06:04:07;;;;;;;19.63;11.32;;;;;;;;;;4961719;28;20141;-68
2022/10/13 06:06:33;;;;;;;16.33;12.03;;;;;;;;;;4960396;28;20047;-68
2022/10/13 06:08:59;;;;;;;15.77;11.82;;;;;;;;;;4961976;28;20050;-68
2022/10/13 06:11:25;;;;;;;17.38;10.73;;;;;;;;;;4961295;28;20054;-69
2022/10/13 06:13:51;;;;;;;13.68;10.68;;;;;;;;;;4961780;28;20050;-68
2022/10/13 06:16:16;;;;;;;21.33;10.40;;;;;;;;;;4961173;28;20635;-68
2022/10/13 06:18:41;;;;;;;13.98;10.18;;;;;;;;;;4961616;28;20038;-68
2022/10/13 06:21:07;;;;;;;13.43;10.60;;;;;;;;;;4962090;28;20546;-68
2022/10/13 06:23:32;;;;;;;12.70;10.13;;;;;;;;;;4961091;28;20073;-68
2022/10/13 06:25:58;;;;;;;16.73;10.88;;;;;;;;;;4962062;28;20054;-68
2022/10/13 06:28:23;;;;;;;18.00;11.57;;;;;;;;;;4960894;28;20051;-68
2022/10/13 06:30:55;;;;;;;13.88;9.50;;;;;;;;;;4962274;28;20974;-68
2022/10/13 06:33:23;;;;;;;14.23;9.90;;;;;;;;;;4961055;28;20525;-69
2022/10/13 06:35:52;;;;;;;15.27;9.68;;;;;;;;;;4962100;28;20113;-68
2022/10/13 06:38:17;;;;;;;16.20;10.52;;;;;;;;;;4959386;28;20061;-68
2022/10/13 06:40:46;;;;;;;12.95;10.18;;;;;;;;;;4961704;28;20413;-68
2022/10/13 06:43:12;;;;;;;13.02;10.15;;;;;;;;;;4961307;28;20876;-68
2022/10/13 06:45:40;;;;;;;12.95;9.88;;;;;;;;;;4959699;28;20070;-68
2022/10/13 06:48:05;;;;;;;17.67;10.60;;;;;;;;;;4961198;28;20077;-68
2022/10/13 06:50:31;;;;;;;14.98;10.30;;;;;;;;;;4960916;28;20050;-68
2022/10/13 06:52:56;;;;;;;22.58;9.93;;;;;;;;;;4961679;28;20080;-68
2022/10/13 06:55:22;;;;;;;14.00;9.27;;;;;;;;;;4960979;28;20050;-69
2022/10/13 06:57:47;;;;;;;15.10;9.60;;;;;;;;;;4961354;28;20050;-68
2022/10/13 07:00:13;;;;;;;14.02;9.35;;;;;;;;;;4960800;28;20134;-68
2022/10/13 07:02:39;;;;;;;12.48;9.35;;;;;;;;;;4961670;28;20043;-68
2022/10/13 07:05:04;;;;;;;11.48;8.85;;;;;;;;;;4961507;28;20062;-69
2022/10/13 07:07:30;;;;;;;12.20;9.27;;;;;;;;;;4960672;28;20093;-68
2022/10/13 07:09:55;;;;;;;13.15;9.70;;;;;;;;;;4961511;28;20153;-68
2022/10/13 07:12:21;;;;;;;16.88;10.10;;;;;;;;;;4960706;28;20043;-68
2022/10/13 07:14:47;;;;;;;17.55;9.95;;;;;;;;;;4961377;28;20133;-67
2022/10/13 07:17:12;;;;;;;20.08;10.80;;;;;;;;;;4961063;28;20057;-68
2022/10/13 07:19:38;;;;;;;15.65;9.60;;;;;;;;;;4960810;28;20047;-68
2022/10/13 07:22:03;;;;;;;14.27;9.75;;;;;;;;;;4961609;28;20770;-68
2022/10/13 07:24:29;;;;;;;18.00;10.43;;;;;;;;;;4962489;28;20062;-68
2022/10/13 07:26:54;;;;;;;14.93;9.48;;;;;;;;;;4964852;28;20683;-68
2022/10/13 07:29:20;;;;;;;12.45;9.73;;;;;;;;;;4965165;28;20837;-68
2022/10/13 07:31:45;;;;;;;19.60;10.30;;;;;;;;;;4964699;28;20467;-67
2022/10/13 07:34:11;;;;;;;19.15;10.52;;;;;;;;;;4964202;28;20096;-68
2022/10/13 07:36:40;;;;;;;14.52;8.82;;;;;;;;;;4963435;28;20109;-68
2022/10/13 07:39:06;;;;;;;16.70;9.63;;;;;;;;;;4965203;28;20561;-68
2022/10/13 07:41:33;;;;;;;14.80;9.93;;;;;;;;;;4966095;28;20074;-69
2022/10/13 07:43:58;;;;;;;15.98;9.07;;;;;;;;;;4966875;28;20097;-68
2022/10/13 07:46:24;;;;;;;10.98;8.55;;;;;;;;;;4963885;28;20514;-69
2022/10/13 07:48:53;;;;;;;12.55;8.57;;;;;;;;;;4964701;28;20542;-69
2022/10/13 07:51:20;;;;;;;11.25;7.88;;;;;;;;;;4963378;28;20053;-69
2022/10/13 07:53:45;;;;;;;18.90;7.57;;;;;;;;;;4964719;28;20050;-68
2022/10/13 07:56:13;;;;;;;12.25;7.90;;;;;;;;;;4963160;28;20051;-69
2022/10/13 07:58:41;;;;;;;14.50;7.60;;;;;;;;;;4963819;28;20051;-70
2022/10/13 08:01:07;;;;;;;14.55;7.45;;;;;;;;;;4964918;28;20085;-67
2022/10/13 08:03:37;;;;;;;11.88;8.15;;;;;;;;;;4964151;28;20047;-68
2022/10/13 08:06:04;;;;;;;17.08;7.75;;;;;;;;;;4964011;28;20050;-68
2022/10/13 08:08:30;;;;;;;12.40;7.88;;;;;;;;;;4957602;28;20042;-68
2022/10/13 08:11:04;;;;;;;10.95;7.50;;;;;;;;;;4964229;28;20081;-68
2022/10/13 08:13:30;;;;;;;11.88;8.02;;;;;;;;;;4963847;28;20041;-68
2022/10/13 08:15:59;;;;;;;12.20;7.72;;;;;;;;;;4963932;28;20514;-68
2022/10/13 08:18:24;;;;;;;14.52;8.25;;;;;;;;;;4962033;28;20066;-67
2022/10/13 08:20:50;;;;;;;13.88;8.75;;;;;;;;;;4962676;28;20050;-67
2022/10/13 08:23:16;;;;;;;17.65;9.32;;;;;;;;;;4964265;28;20412;-67
2022/10/13 08:25:48;;;;;;;13.98;9.07;;;;;;;;;;4963903;28;20129;-68
2022/10/13 08:28:27;;;;;;;14.45;8.68;;;;;;;;;;4962414;28;20213;-67
2022/10/13 08:30:54;;;;;;;13.65;8.82;;;;;;;;;;4963545;28;20854;-68
2022/10/13 08:33:19;;;;;;;13.48;8.30;;;;;;;;;;4964181;28;20154;-67
2022/10/13 08:35:45;;;;;;;14.20;8.48;;;;;;;;;;4962252;28;20067;-67
2022/10/13 08:38:11;;;;;;;14.40;8.82;;;;;;;;;;4963424;28;20150;-68
2022/10/13 08:40:38;;;;;;;13.52;8.07;;;;;;;;;;4962399;28;20644;-67
2022/10/13 08:43:07;;;;;;;14.07;7.75;;;;;;;;;;4963383;28;20058;-69
2022/10/13 08:45:34;;;;;;;12.23;7.72;;;;;;;;;;4962012;28;20609;-69
2022/10/13 08:48:13;;;;;;;13.60;8.10;;;;;;;;;;4963525;28;20078;-69
2022/10/13 08:50:43;;;;;;;15.55;8.90;;;;;;;;;;4961907;28;20046;-68
2022/10/13 08:53:35;;;;;;;12.80;7.70;;;;;;;;;;4963652;28;20039;-68
2022/10/13 08:56:24;;;;;;;13.02;8.32;;;;;;;;;;4946813;28;20054;-69
2022/10/13 08:58:53;;;;;;;19.23;8.13;;;;;;;;;;4963438;28;20403;-68
2022/10/13 09:01:18;;;;;;;14.38;8.52;;;;;;;;;;4962518;28;20065;-69
2022/10/13 09:03:55;;;;;;;11.80;7.55;;;;;;;;;;4962799;28;20082;-68
2022/10/13 09:06:30;;;;;;;12.43;8.02;;;;;;;;;;4962977;28;20414;-69
2022/10/13 09:09:03;;;;;;;15.45;8.18;;;;;;;;;;4963817;28;20408;-70
2022/10/13 09:11:32;;;;;;;14.45;8.07;;;;;;;;;;4962724;28;20038;-69
2022/10/13 09:14:00;;;;;;;13.73;8.45;;;;;;;;;;4962273;28;20671;-68
2022/10/13 09:16:34;;;;;;;13.52;8.27;;;;;;;;;;4963076;28;20141;-68
2022/10/13 09:19:19;;;;;;;16.30;8.52;;;;;;;;;;4963220;28;20047;-69
2022/10/13 09:21:45;;;;;;;13.95;7.72;;;;;;;;;;4962447;28;20050;-69
2022/10/13 09:24:16;;;;;;;15.18;7.90;;;;;;;;;;4961956;28;20090;-69
2022/10/13 09:26:43;;;;;;;10.88;7.32;;;;;;;;;;4962400;28;20043;-69
2022/10/13 09:29:14;;;;;;;11.82;7.75;;;;;;;;;;4962981;28;20182;-69
2022/10/13 09:31:40;;;;;;;9.68;7.55;;;;;;;;;;4962736;28;20081;-69
2022/10/13 09:34:22;;;;;;;13.88;8.05;;;;;;;;;;4962749;28;20055;-67
2022/10/13 09:37:00;;;;;;;12.60;7.70;;;;;;;;;;4961948;28;20038;-69
2022/10/13 09:39:26;;;;;;;11.68;8.10;;;;;;;;;;4962176;28;20458;-68
2022/10/13 09:42:07;;;;;;;13.70;8.57;;;;;;;;;;4962809;28;20507;-68
2022/10/13 09:44:32;;;;;;;16.30;9.40;;;;;;;;;;4962956;28;20514;-68
2022/10/13 09:47:00;;;;;;;19.98;9.10;;;;;;;;;;4960322;28;20042;-67
2022/10/13 09:49:40;;;;;;;14.50;8.57;;;;;;;;;;4961999;28;20149;-68
2022/10/13 09:52:11;;;;;;;15.38;9.15;;;;;;;;;;4962832;28;20480;-68
2022/10/13 09:54:39;;;;;;;12.93;8.48;;;;;;;;;;4962547;28;20058;-68
2022/10/13 09:57:09;;;;;;;17.23;9.30;;;;;;;;;;4960504;28;20043;-69
2022/10/13 09:59:50;;;;;;;15.68;8.20;;;;;;;;;;4961050;28;20057;-68
2022/10/13 10:02:23;;;;;;;14.57;8.35;;;;;;;;;;4962648;28;20051;-68
2022/10/13 10:04:50;;;;;;;13.15;7.72;;;;;;;;;;4962576;28;20082;-68
2022/10/13 10:07:20;;;;;;;14.23;8.23;;;;;;;;;;4960821;28;20062;-68
2022/10/13 10:10:00;;;;;;;17.52;8.90;;;;;;;;;;4961131;28;20074;-68
2022/10/13 10:12:29;;;;;;;18.58;9.00;;;;;;;;;;4958146;28;20101;-68
2022/10/13 10:14:55;;;;;;;17.77;9.93;;;;;;;;;;4960405;28;20120;-68
2022/10/13 10:17:23;;;;;;;27.23;9.43;;;;;;;;;;4960987;28;20043;-68
2022/10/13 10:20:19;;;;;;;13.85;9.25;;;;;;;;;;4960524;28;20122;-69
2022/10/13 10:22:59;;;;;;;16.45;8.73;;;;;;;;;;4954000;28;20051;-69
2022/10/13 10:26:00;;;;;;;17.52;8.82;;;;;;;;;;4961370;28;20063;-70
2022/10/13 10:28:42;;;;;;;17.55;9.05;;;;;;;;;;4942001;28;20090;-69
2022/10/13 10:31:35;;;;;;;15.85;8.50;;;;;;;;;;4961284;28;20130;-69
2022/10/13 10:34:06;;;;;;;25.88;9.20;;;;;;;;;;4944203;28;20051;-69
2022/10/13 10:37:09;;;;;;;15.52;8.60;;;;;;;;;;4961528;28;20522;-69
2022/10/13 10:39:50;;;;;;;19.92;8.63;;;;;;;;;;4960979;28;20674;-70
2022/10/13 10:42:21;;;;;;;18.48;9.02;;;;;;;;;;4960483;28;20047;-69
2022/10/13 10:44:52;;;;;;;21.08;9.70;;;;;;;;;;4960855;28;20043;-69
2022/10/13 10:47:22;;;;;;;16.65;9.00;;;;;;;;;;4954821;28;20062;-71
2022/10/13 10:49:51;;;;;;;18.20;9.07;;;;;;;;;;4959813;28;20050;-70
2022/10/13 10:52:41;;;;;;;19.92;10.15;;;;;;;;;;4960042;28;20035;-70
2022/10/13 10:55:44;;;;;;;20.98;10.30;;;;;;;;;;4960218;28;20072;-70
2022/10/13 10:58:25;;;;;;;16.25;8.90;;;;;;;;;;4955818;28;20046;-71
2022/10/13 11:00:56;;;;;;;15.50;9.07;;;;;;;;;;4961227;28;20074;-70
2022/10/13 11:03:30;;;;;;;21.65;8.93;;;;;;;;;;4958634;28;21042;-69
2022/10/13 11:05:56;;;;;;;17.77;7.90;;;;;;;;;;4960101;28;20105;-69
2022/10/13 11:08:39;;;;;;;13.32;8.20;;;;;;;;;;4959699;28;20055;-69
2022/10/13 11:11:26;;;;;;;15.52;8.00;;;;;;;;;;4959630;28;20046;-70
2022/10/13 11:13:57;;;;;;;19.80;8.10;;;;;;;;;;4957506;28;20059;-70
2022/10/13 11:16:31;;;;;;;22.50;8.80;;;;;;;;;;4959744;28;20046;-69
2022/10/13 11:19:06;;;;;;;13.18;7.68;;;;;;;;;;4959510;28;20564;-70
2022/10/13 11:21:54;;;;;;;12.50;7.10;;;;;;;;;;4959799;28;20050;-70
2022/10/13 11:24:41;;;;;;;13.32;6.95;;;;;;;;;;4959831;28;20055;-68
2022/10/13 11:27:14;;;;;;;15.38;7.85;;;;;;;;;;4960616;28;20047;-71
2022/10/13 11:29:43;;;;;;;13.00;6.97;;;;;;;;;;4960529;28;20046;-71
2022/10/13 11:32:26;;;;;;;19.40;7.70;;;;;;;;;;4960900;28;20054;-71
2022/10/13 11:35:05;;;;;;;14.30;7.82;;;;;;;;;;4960953;28;20078;-71
2022/10/13 11:38:03;;;;;;;18.30;7.28;;;;;;;;;;4957715;28;20680;-71
2022/10/13 11:40:40;;;;;;;11.75;7.32;;;;;;;;;;4959083;28;20737;-71
2022/10/13 11:43:11;;;;;;;12.15;6.95;;;;;;;;;;4959090;28;20061;-71
2022/10/13 11:46:04;;;;;;;13.75;7.03;;;;;;;;;;4958650;28;20050;-71
2022/10/13 11:48:48;;;;;;;11.38;7.30;;;;;;;;;;4958102;28;20055;-71
2022/10/13 11:51:30;;;;;;;16.77;7.05;;;;;;;;;;4959618;28;20069;-71
2022/10/13 11:54:04;;;;;;;19.95;7.70;;;;;;;;;;4972762;28;20051;-69
2022/10/13 11:56:43;;;;;;;14.65;6.93;;;;;;;;;;4960617;28;20053;-69
2022/10/13 11:59:29;;;;;;;13.30;7.32;;;;;;;;;;4959913;28;20403;-70
2022/10/13 12:02:04;;;;;;;12.13;6.10;;;;;;;;;;4939663;28;20522;-70
2022/10/13 12:04:30;;;;;;;13.38;5.65;;;;;;;;;;4960122;28;20599;-70
2022/10/13 12:07:00;;;;;;;15.50;6.97;;;;;;;;;;4960568;28;20083;-70
2022/10/13 12:09:28;;;;;;;12.70;6.63;;;;;;;;;;4957966;28;20046;-71
2022/10/13 12:12:06;;;;;;;12.88;6.32;;;;;;;;;;4964124;28;20061;-71
2022/10/13 12:14:37;;;;;;;12.68;6.65;;;;;;;;;;4963559;28;20423;-70
2022/10/13 12:17:03;;;;;;;12.45;6.70;;;;;;;;;;4963380;28;20458;-70
2022/10/13 12:19:30;;;;;;;16.23;7.20;;;;;;;;;;4956201;28;21082;-70
2022/10/13 12:22:00;;;;;;;10.50;6.25;;;;;;;;;;4961481;28;20135;-70
2022/10/13 12:24:29;;;;;;;12.48;6.13;;;;;;;;;;4962077;28;20058;-70
2022/10/13 12:26:55;;;;;;;11.80;6.43;;;;;;;;;;4962047;28;20073;-69
2022/10/13 12:29:27;;;;;;;8.77;5.35;;;;;;;;;;4963280;28;20082;-69
2022/10/13 12:31:54;;;;;;;21.77;6.00;;;;;;;;;;4963107;28;20047;-69
2022/10/13 12:34:28;;;;;;;14.50;5.88;;;;;;;;;;4963809;28;20047;-69
2022/10/13 12:37:10;;;;;;;18.70;6.43;;;;;;;;;;4963425;28;20047;-69
2022/10/13 12:39:37;;;;;;;10.98;6.05;;;;;;;;;;4962583;28;20055;-68
2022/10/13 12:42:06;;;;;;;8.88;6.28;;;;;;;;;;4963161;28;20057;-68
2022/10/13 12:44:33;;;;;;;20.50;7.22;;;;;;;;;;4963947;28;20047;-68
2022/10/13 12:47:02;;;;;;;17.98;7.15;;;;;;;;;;4963011;28;20056;-71
2022/10/13 12:49:29;;;;;;;13.27;6.85;;;;;;;;;;4961258;28;20042;-69
2022/10/13 12:52:10;;;;;;;17.83;6.85;;;;;;;;;;4963811;28;20129;-68
2022/10/13 12:54:38;;;;;;;14.47;7.13;;;;;;;;;;4963263;28;20058;-69
2022/10/13 12:57:15;;;;;;;13.80;6.57;;;;;;;;;;4963166;28;20294;-68
2022/10/13 12:59:41;;;;;;;20.33;7.35;;;;;;;;;;4961114;28;20500;-68
2022/10/13 13:02:20;;;;;;;14.27;6.40;;;;;;;;;;4963874;28;20050;-69
2022/10/13 13:04:46;;;;;;;12.45;6.47;;;;;;;;;;4962277;28;20534;-69
2022/10/13 13:07:28;;;;;;;13.43;6.57;;;;;;;;;;4962945;28;20114;-69
2022/10/13 13:10:02;;;;;;;15.45;6.88;;;;;;;;;;4963050;28;20677;-69
2022/10/13 13:12:29;;;;;;;15.02;5.82;;;;;;;;;;4963099;28;20060;-68
2022/10/13 13:14:57;;;;;;;15.65;7.20;;;;;;;;;;4961933;28;20640;-69
2022/10/13 13:17:29;;;;;;;15.35;6.65;;;;;;;;;;4962523;28;20338;-68
2022/10/13 13:19:56;;;;;;;10.32;6.10;;;;;;;;;;4960487;28;20121;-69
2022/10/13 13:22:22;;;;;;;11.07;6.68;;;;;;;;;;4962679;28;20059;-69
2022/10/13 13:24:50;;;;;;;12.65;6.97;;;;;;;;;;4961828;28;20253;-68
2022/10/13 13:27:24;;;;;;;11.90;6.53;;;;;;;;;;4961589;28;20157;-69
2022/10/13 13:29:50;;;;;;;14.98;6.30;;;;;;;;;;4962002;28;20038;-71
2022/10/13 13:32:17;;;;;;;17.05;6.30;;;;;;;;;;4962781;28;20070;-70
2022/10/13 13:34:45;;;;;;;21.33;7.05;;;;;;;;;;4963352;28;20054;-68
2022/10/13 13:37:15;;;;;;;13.20;7.20;;;;;;;;;;4959947;28;20035;-71
2022/10/13 13:39:41;;;;;;;10.15;6.57;;;;;;;;;;4960220;28;20065;-69
2022/10/13 13:42:13;;;;;;;17.92;6.82;;;;;;;;;;4961260;28;20186;-69
2022/10/13 13:44:38;;;;;;;14.48;6.22;;;;;;;;;;4962206;28;20415;-68
2022/10/13 13:47:04;;;;;;;12.20;6.72;;;;;;;;;;4958479;28;20770;-68
2022/10/13 13:49:29;;;;;;;14.68;6.60;;;;;;;;;;4961142;28;20038;-68
2022/10/13 13:51:55;;;;;;;14.50;6.13;;;;;;;;;;4962418;28;20063;-68
2022/10/13 13:54:20;;;;;;;17.35;7.28;;;;;;;;;;4961509;28;20142;-68
2022/10/13 13:56:46;;;;;;;13.73;6.78;;;;;;;;;;4961386;28;20042;-69
2022/10/13 13:59:11;;;;;;;14.95;6.88;;;;;;;;;;4961009;28;20046;-69
2022/10/13 14:01:36;;;;;;;17.02;7.25;;;;;;;;;;4961604;28;20055;-69
2022/10/13 14:04:02;;;;;;;16.48;7.25;;;;;;;;;;4961629;28;20112;-69
2022/10/13 14:06:27;;;;;;;15.48;6.97;;;;;;;;;;4958138;28;20125;-69
2022/10/13 14:08:53;;;;;;;18.02;6.40;;;;;;;;;;4960397;28;20650;-70
2022/10/13 14:11:18;;;;;;;14.80;6.40;;;;;;;;;;4961976;28;20108;-70
2022/10/13 14:13:44;;;;;;;14.57;6.45;;;;;;;;;;4961460;28;20065;-69
2022/10/13 14:16:16;;;;;;;15.93;7.32;;;;;;;;;;4960038;28;20146;-69
2022/10/13 14:18:42;;;;;;;16.20;6.45;;;;;;;;;;4961088;28;20050;-70
2022/10/13 14:21:07;;;;;;;13.23;7.50;;;;;;;;;;4961278;28;20043;-69
2022/10/13 14:23:33;;;;;;;15.02;7.75;;;;;;;;;;4960947;28;20071;-69
2022/10/13 14:26:04;;;;;;;16.40;7.40;;;;;;;;;;4960987;28;20035;-69
2022/10/13 14:28:30;;;;;;;17.65;8.70;;;;;;;;;;4961266;28;20039;-69
2022/10/13 14:30:55;;;;;;;17.83;7.38;;;;;;;;;;4958653;28;20065;-68
2022/10/13 14:33:21;;;;;;;13.18;7.50;;;;;;;;;;4957792;28;20047;-69
2022/10/13 14:35:46;;;;;;;15.15;6.78;;;;;;;;;;4960078;28;20120;-69
2022/10/13 14:38:14;;;;;;;15.63;7.75;;;;;;;;;;4959001;28;20039;-69
2022/10/13 14:40:41;;;;;;;13.25;7.45;;;;;;;;;;4960608;28;20058;-70
2022/10/13 14:43:06;;;;;;;13.35;7.55;;;;;;;;;;4959949;28;20050;-69